createdAt,value
2022-10-07T00:00:02.893Z,0.00
2022-10-07T00:01:02.930Z,0.00
2022-10-07T00:02:02.993Z,0.00
2022-10-07T00:03:02.833Z,0.00
2022-10-07T00:04:02.845Z,0.00
2022-10-07T00:05:02.823Z,0.00
2022-10-07T00:06:02.808Z,0.00
2022-10-07T00:07:02.805Z,0.00
2022-10-07T00:08:02.777Z,0.00
2022-10-07T00:09:02.777Z,0.00
2022-10-07T00:10:07.807Z,0.00
2022-10-07T00:11:02.821Z,0.00
2022-10-07T00:12:02.733Z,0.00
2022-10-07T00:13:02.740Z,0.00
2022-10-07T00:14:02.714Z,0.00
2022-10-07T00:15:02.711Z,0.00
2022-10-07T00:16:02.690Z,0.00
2022-10-07T00:17:02.791Z,0.00
2022-10-07T00:18:02.673Z,0.00
2022-10-07T00:19:02.650Z,0.00
2022-10-07T00:20:02.671Z,0.00
2022-10-07T00:21:07.659Z,0.00
2022-10-07T00:22:02.622Z,0.00
2022-10-07T00:23:02.612Z,0.00
2022-10-07T00:24:02.595Z,0.00
2022-10-07T00:25:02.642Z,0.00
2022-10-07T00:26:02.576Z,0.00
2022-10-07T00:27:02.561Z,0.00
2022-10-07T00:28:02.596Z,0.00
2022-10-07T00:29:02.556Z,0.00
2022-10-07T00:30:02.532Z,0.00
2022-10-07T00:31:02.649Z,0.00
2022-10-07T00:32:07.536Z,0.00
2022-10-07T00:33:02.546Z,0.00
2022-10-07T00:34:02.480Z,0.00
2022-10-07T00:35:02.471Z,0.00
2022-10-07T00:36:02.442Z,0.00
2022-10-07T00:37:02.429Z,0.00
2022-10-07T00:38:02.395Z,0.00
2022-10-07T00:39:02.405Z,0.00
2022-10-07T00:40:02.369Z,0.00
2022-10-07T00:41:02.369Z,0.00
2022-10-07T00:42:02.351Z,0.00
2022-10-07T00:43:07.357Z,0.00
2022-10-07T00:44:02.324Z,0.00
2022-10-07T00:45:02.336Z,0.00
2022-10-07T00:46:02.360Z,0.00
2022-10-07T00:47:02.302Z,0.00
2022-10-07T00:48:02.284Z,0.00
2022-10-07T00:49:02.268Z,0.00
2022-10-07T00:50:02.256Z,0.00
2022-10-07T00:51:02.255Z,0.00
2022-10-07T00:52:02.232Z,0.00
2022-10-07T00:53:02.225Z,0.00
2022-10-07T00:54:07.231Z,0.00
2022-10-07T00:55:02.215Z,0.00
2022-10-07T00:56:02.198Z,0.00
2022-10-07T00:57:02.176Z,0.00
2022-10-07T00:58:02.169Z,0.00
2022-10-07T00:59:02.155Z,0.00
2022-10-07T01:00:02.152Z,0.00
2022-10-07T01:01:02.252Z,0.00
2022-10-07T01:02:02.220Z,0.00
2022-10-07T01:03:02.109Z,0.00
2022-10-07T01:04:02.097Z,0.00
2022-10-07T01:05:07.108Z,0.00
2022-10-07T01:06:02.091Z,0.00
2022-10-07T01:07:02.065Z,0.00
2022-10-07T01:08:02.053Z,0.00
2022-10-07T01:09:02.041Z,0.00
2022-10-07T01:10:02.028Z,0.00
2022-10-07T01:11:02.034Z,0.00
2022-10-07T01:12:02.006Z,0.00
2022-10-07T01:13:02.006Z,0.00
2022-10-07T01:14:01.982Z,0.00
2022-10-07T01:15:01.985Z,0.00
2022-10-07T01:16:07.015Z,0.00
2022-10-07T01:17:02.052Z,0.00
2022-10-07T01:18:01.940Z,0.00
2022-10-07T01:19:01.929Z,0.00
2022-10-07T01:20:01.958Z,0.00
2022-10-07T01:21:01.923Z,0.00
2022-10-07T01:22:01.891Z,0.00
2022-10-07T01:23:01.886Z,0.00
2022-10-07T01:24:01.871Z,0.00
2022-10-07T01:25:01.859Z,0.00
2022-10-07T01:26:01.870Z,0.00
2022-10-07T01:27:06.865Z,0.00
2022-10-07T01:28:01.913Z,0.00
2022-10-07T01:29:01.817Z,0.00
2022-10-07T01:30:01.807Z,0.00
2022-10-07T01:31:01.871Z,0.00
2022-10-07T01:32:01.801Z,0.00
2022-10-07T01:33:01.778Z,0.00
2022-10-07T01:34:01.759Z,0.00
2022-10-07T01:35:01.747Z,0.00
2022-10-07T01:36:01.737Z,0.00
2022-10-07T01:37:01.734Z,0.00
2022-10-07T01:38:06.734Z,0.00
2022-10-07T01:39:01.703Z,0.00
2022-10-07T01:40:01.693Z,0.00
2022-10-07T01:41:01.678Z,0.00
2022-10-07T01:42:01.677Z,0.00
2022-10-07T01:43:01.666Z,0.00
2022-10-07T01:44:01.647Z,0.00
2022-10-07T01:45:01.642Z,0.00
2022-10-07T01:46:01.666Z,0.00
2022-10-07T01:47:01.623Z,0.00
2022-10-07T01:48:01.743Z,0.00
2022-10-07T01:49:06.612Z,0.00
2022-10-07T01:50:01.593Z,0.00
2022-10-07T01:51:01.565Z,0.00
2022-10-07T01:52:01.562Z,0.00
2022-10-07T01:53:01.543Z,0.00
2022-10-07T01:54:01.530Z,0.00
2022-10-07T01:55:01.529Z,0.00
2022-10-07T01:56:01.509Z,0.00
2022-10-07T01:57:01.511Z,0.00
2022-10-07T01:58:01.487Z,0.00
2022-10-07T01:59:01.485Z,0.00
2022-10-07T02:00:06.484Z,0.00
2022-10-07T02:01:01.606Z,0.00
2022-10-07T02:02:01.449Z,0.00
2022-10-07T02:03:01.430Z,0.00
2022-10-07T02:04:01.480Z,0.00
2022-10-07T02:05:01.415Z,0.00
2022-10-07T02:06:01.396Z,0.00
2022-10-07T02:07:01.393Z,0.00
2022-10-07T02:08:01.375Z,0.00
2022-10-07T02:09:01.361Z,0.00
2022-10-07T02:10:01.364Z,0.00
2022-10-07T02:11:06.373Z,0.00
2022-10-07T02:12:01.347Z,0.00
2022-10-07T02:13:01.315Z,0.00
2022-10-07T02:14:01.313Z,0.00
2022-10-07T02:15:01.309Z,0.00
2022-10-07T02:16:01.342Z,0.00
2022-10-07T02:17:01.289Z,0.00
2022-10-07T02:18:01.277Z,0.00
2022-10-07T02:19:01.268Z,0.00
2022-10-07T02:20:01.266Z,0.00
2022-10-07T02:21:01.239Z,0.00
2022-10-07T02:22:06.269Z,0.00
2022-10-07T02:23:01.207Z,0.00
2022-10-07T02:24:01.192Z,0.00
2022-10-07T02:25:01.179Z,0.00
2022-10-07T02:26:01.169Z,0.00
2022-10-07T02:27:01.202Z,0.00
2022-10-07T02:28:01.218Z,0.00
2022-10-07T02:29:01.133Z,0.00
2022-10-07T02:30:01.139Z,0.00
2022-10-07T02:31:01.186Z,0.00
2022-10-07T02:32:01.100Z,0.00
2022-10-07T02:33:06.150Z,0.00
2022-10-07T02:34:01.081Z,0.00
2022-10-07T02:35:01.069Z,0.00
2022-10-07T02:36:01.079Z,0.00
2022-10-07T02:37:01.058Z,0.00
2022-10-07T02:38:01.047Z,0.00
2022-10-07T02:39:01.026Z,0.00
2022-10-07T02:40:01.011Z,0.00
2022-10-07T02:41:01.008Z,0.00
2022-10-07T02:42:00.987Z,0.00
2022-10-07T02:43:00.989Z,0.00
2022-10-07T02:44:05.987Z,0.00
2022-10-07T02:45:00.970Z,0.00
2022-10-07T02:46:01.036Z,0.00
2022-10-07T02:47:01.148Z,0.00
2022-10-07T02:48:00.931Z,0.00
2022-10-07T02:49:00.925Z,0.00
2022-10-07T02:50:00.933Z,0.00
2022-10-07T02:51:00.883Z,0.00
2022-10-07T02:52:00.897Z,0.00
2022-10-07T02:53:00.876Z,0.00
2022-10-07T02:54:00.851Z,0.00
2022-10-07T02:55:05.860Z,0.00
2022-10-07T02:56:00.830Z,0.00
2022-10-07T02:57:00.817Z,0.00
2022-10-07T02:58:00.819Z,0.00
2022-10-07T02:59:00.795Z,0.00
2022-10-07T03:00:00.783Z,0.00
2022-10-07T03:01:00.774Z,0.00
2022-10-07T03:02:00.828Z,0.00
2022-10-07T03:03:00.765Z,0.00
2022-10-07T03:04:00.849Z,0.00
2022-10-07T03:05:00.726Z,0.00
2022-10-07T03:06:05.743Z,0.00
2022-10-07T03:07:00.703Z,0.00
2022-10-07T03:08:00.725Z,0.00
2022-10-07T03:09:00.687Z,0.00
2022-10-07T03:10:00.676Z,0.00
2022-10-07T03:11:00.663Z,0.00
2022-10-07T03:12:00.654Z,0.00
2022-10-07T03:13:00.651Z,0.00
2022-10-07T03:14:00.630Z,0.00
2022-10-07T03:15:00.614Z,0.00
2022-10-07T03:16:00.671Z,0.00
2022-10-07T03:17:05.612Z,0.00
2022-10-07T03:18:00.596Z,0.00
2022-10-07T03:19:00.568Z,0.00
2022-10-07T03:20:00.558Z,0.00
2022-10-07T03:21:00.599Z,0.00
2022-10-07T03:22:00.536Z,0.00
2022-10-07T03:23:00.537Z,0.00
2022-10-07T03:24:00.535Z,0.00
2022-10-07T03:25:00.502Z,0.00
2022-10-07T03:26:00.494Z,0.00
2022-10-07T03:27:00.479Z,0.00
2022-10-07T03:28:05.527Z,0.00
2022-10-07T03:29:00.457Z,0.00
2022-10-07T03:30:00.485Z,0.00
2022-10-07T03:31:00.483Z,0.00
2022-10-07T03:32:00.428Z,0.00
2022-10-07T03:33:00.447Z,0.00
2022-10-07T03:34:00.421Z,0.00
2022-10-07T03:35:00.390Z,0.00
2022-10-07T03:36:00.381Z,0.00
2022-10-07T03:37:00.367Z,0.00
2022-10-07T03:38:00.371Z,0.00
2022-10-07T03:39:05.379Z,0.00
2022-10-07T03:40:00.340Z,0.00
2022-10-07T03:41:00.319Z,0.00
2022-10-07T03:42:00.320Z,0.00
2022-10-07T03:43:00.320Z,0.00
2022-10-07T03:44:00.300Z,0.00
2022-10-07T03:45:00.285Z,0.00
2022-10-07T03:46:00.302Z,0.00
2022-10-07T03:47:00.265Z,0.00
2022-10-07T03:48:00.252Z,0.00
2022-10-07T03:49:00.229Z,0.00
2022-10-07T03:50:05.271Z,0.00
2022-10-07T03:51:00.215Z,0.00
2022-10-07T03:52:00.248Z,0.00
2022-10-07T03:53:00.196Z,0.00
2022-10-07T03:54:00.171Z,0.00
2022-10-07T03:55:00.181Z,0.00
2022-10-07T03:56:00.156Z,0.00
2022-10-07T03:57:00.133Z,0.00
2022-10-07T03:58:00.140Z,0.00
2022-10-07T03:59:00.111Z,0.00
2022-10-07T04:00:00.120Z,0.00
2022-10-07T04:01:05.110Z,0.00
2022-10-07T04:02:00.220Z,0.00
2022-10-07T04:03:00.167Z,0.00
2022-10-07T04:04:00.055Z,0.00
2022-10-07T04:05:00.044Z,0.00
2022-10-07T04:06:00.042Z,0.00
2022-10-07T04:07:00.026Z,0.00
2022-10-07T04:08:00.021Z,0.00
2022-10-07T04:08:59.998Z,0.00
2022-10-07T04:09:59.993Z,0.00
2022-10-07T04:10:59.995Z,0.00
2022-10-07T04:12:04.993Z,0.00
2022-10-07T04:12:59.959Z,0.00
2022-10-07T04:13:59.961Z,0.00
2022-10-07T04:14:59.928Z,0.00
2022-10-07T04:15:59.970Z,0.00
2022-10-07T04:16:59.911Z,0.00
2022-10-07T04:17:59.905Z,0.00
2022-10-07T04:18:59.898Z,0.00
2022-10-07T04:19:59.895Z,0.00
2022-10-07T04:20:59.861Z,0.00
2022-10-07T04:21:59.851Z,0.00
2022-10-07T04:23:04.872Z,0.00
2022-10-07T04:23:59.831Z,0.00
2022-10-07T04:24:59.816Z,0.00
2022-10-07T04:25:59.804Z,0.00
2022-10-07T04:26:59.815Z,0.00
2022-10-07T04:28:00.404Z,0.00
2022-10-07T04:28:59.772Z,0.00
2022-10-07T04:29:59.758Z,0.00
2022-10-07T04:30:59.774Z,0.00
2022-10-07T04:31:59.752Z,0.00
2022-10-07T04:32:59.724Z,0.00
2022-10-07T04:34:04.752Z,0.00
2022-10-07T04:34:59.702Z,0.00
2022-10-07T04:35:59.690Z,0.00
2022-10-07T04:36:59.677Z,0.00
2022-10-07T04:38:00.040Z,0.00
2022-10-07T04:38:59.667Z,0.00
2022-10-07T04:40:01.163Z,0.00
2022-10-07T04:40:59.631Z,0.00
2022-10-07T04:41:59.625Z,0.00
2022-10-07T04:42:59.627Z,0.00
2022-10-07T04:43:59.613Z,0.00
2022-10-07T04:45:04.609Z,0.00
2022-10-07T04:45:59.585Z,0.00
2022-10-07T04:46:59.664Z,0.00
2022-10-07T04:47:59.553Z,0.00
2022-10-07T04:48:59.567Z,0.00
2022-10-07T04:49:59.536Z,0.00
2022-10-07T04:50:59.516Z,0.00
2022-10-07T04:51:59.508Z,0.00
2022-10-07T04:52:59.498Z,0.00
2022-10-07T04:53:59.511Z,0.00
2022-10-07T04:54:59.473Z,0.00
2022-10-07T04:56:04.486Z,0.00
2022-10-07T04:56:59.450Z,0.00
2022-10-07T04:57:59.438Z,0.00
2022-10-07T04:58:59.453Z,0.00
2022-10-07T04:59:59.417Z,0.00
2022-10-07T05:00:59.463Z,0.00
2022-10-07T05:01:59.430Z,0.00
2022-10-07T05:02:59.395Z,0.00
2022-10-07T05:03:59.397Z,0.00
2022-10-07T05:04:59.359Z,0.00
2022-10-07T05:06:03.305Z,0.00
2022-10-07T05:07:05.353Z,0.00
2022-10-07T05:07:59.355Z,0.00
2022-10-07T05:08:59.312Z,0.00
2022-10-07T05:09:59.298Z,4.00
2022-10-07T05:10:59.289Z,4.00
2022-10-07T05:11:59.280Z,0.00
2022-10-07T05:12:59.266Z,0.00
2022-10-07T05:13:59.265Z,4.00
2022-10-07T05:14:59.269Z,0.00
2022-10-07T05:15:59.281Z,4.00
2022-10-07T05:16:59.231Z,4.00
2022-10-07T05:18:04.227Z,4.00
2022-10-07T05:18:59.226Z,4.00
2022-10-07T05:19:59.227Z,4.00
2022-10-07T05:20:59.196Z,8.00
2022-10-07T05:21:59.193Z,8.00
2022-10-07T05:22:59.191Z,12.00
2022-10-07T05:23:59.192Z,8.00
2022-10-07T05:24:59.128Z,16.00
2022-10-07T05:25:59.120Z,20.00
2022-10-07T05:26:59.125Z,20.00
2022-10-07T05:27:59.169Z,20.00
2022-10-07T05:29:04.144Z,28.00
2022-10-07T05:29:59.076Z,28.00
2022-10-07T05:30:59.105Z,32.00
2022-10-07T05:32:03.897Z,36.00
2022-10-07T05:33:00.040Z,36.00
2022-10-07T05:33:59.038Z,40.00
2022-10-07T05:34:59.026Z,40.00
2022-10-07T05:35:59.015Z,44.00
2022-10-07T05:36:58.994Z,48.00
2022-10-07T05:37:58.979Z,52.00
2022-10-07T05:38:58.988Z,56.00
2022-10-07T05:40:03.978Z,60.00
2022-10-07T05:40:58.945Z,64.00
2022-10-07T05:41:58.932Z,68.00
2022-10-07T05:42:58.923Z,76.00
2022-10-07T05:43:58.928Z,80.00
2022-10-07T05:44:58.899Z,84.00
2022-10-07T05:45:58.990Z,92.00
2022-10-07T05:46:58.896Z,92.00
2022-10-07T05:47:58.866Z,100.00
2022-10-07T05:48:58.888Z,108.00
2022-10-07T05:49:58.846Z,116.00
2022-10-07T05:51:03.857Z,120.00
2022-10-07T05:51:58.816Z,132.00
2022-10-07T05:52:58.871Z,148.00
2022-10-07T05:53:58.815Z,164.00
2022-10-07T05:54:58.793Z,160.00
2022-10-07T05:55:58.779Z,164.00
2022-10-07T05:56:58.764Z,172.00
2022-10-07T05:57:58.750Z,176.00
2022-10-07T05:58:58.762Z,188.00
2022-10-07T05:59:58.727Z,188.00
2022-10-07T06:01:03.698Z,188.00
2022-10-07T06:02:04.888Z,196.00
2022-10-07T06:02:58.851Z,196.00
2022-10-07T06:03:58.739Z,188.00
2022-10-07T06:04:58.884Z,192.00
2022-10-07T06:05:59.101Z,200.00
2022-10-07T06:06:58.827Z,208.00
2022-10-07T06:07:58.673Z,212.00
2022-10-07T06:08:58.631Z,216.00
2022-10-07T06:09:58.658Z,224.00
2022-10-07T06:10:58.603Z,228.00
2022-10-07T06:11:58.602Z,236.00
2022-10-07T06:13:03.612Z,240.00
2022-10-07T06:13:58.568Z,244.00
2022-10-07T06:14:58.595Z,248.00
2022-10-07T06:15:58.546Z,260.00
2022-10-07T06:16:58.605Z,268.00
2022-10-07T06:17:58.574Z,276.00
2022-10-07T06:18:58.550Z,288.00
2022-10-07T06:19:58.699Z,300.00
2022-10-07T06:20:58.489Z,324.00
2022-10-07T06:21:58.498Z,348.00
2022-10-07T06:22:58.493Z,372.00
2022-10-07T06:24:03.487Z,384.00
2022-10-07T06:24:58.468Z,388.00
2022-10-07T06:25:58.433Z,380.00
2022-10-07T06:26:58.420Z,372.00
2022-10-07T06:27:59.007Z,364.00
2022-10-07T06:28:58.400Z,380.00
2022-10-07T06:29:58.423Z,396.00
2022-10-07T06:30:58.509Z,396.00
2022-10-07T06:31:58.376Z,388.00
2022-10-07T06:32:58.359Z,380.00
2022-10-07T06:33:58.377Z,384.00
2022-10-07T06:35:03.372Z,392.00
2022-10-07T06:36:03.592Z,412.00
2022-10-07T06:36:59.340Z,440.00
2022-10-07T06:37:58.305Z,464.00
2022-10-07T06:38:58.290Z,484.00
2022-10-07T06:39:59.692Z,496.00
2022-10-07T06:40:58.270Z,524.00
2022-10-07T06:41:58.250Z,552.00
2022-10-07T06:42:58.241Z,580.00
2022-10-07T06:43:58.229Z,668.00
2022-10-07T06:44:58.229Z,752.00
2022-10-07T06:46:03.349Z,796.00
2022-10-07T06:46:58.198Z,760.00
2022-10-07T06:47:58.389Z,756.00
2022-10-07T06:48:58.174Z,800.00
2022-10-07T06:49:58.193Z,820.00
2022-10-07T06:50:58.155Z,868.00
2022-10-07T06:51:58.139Z,1008.00
2022-10-07T06:52:58.133Z,1116.00
2022-10-07T06:53:58.134Z,1112.00
2022-10-07T06:54:58.128Z,1164.00
2022-10-07T06:55:58.094Z,1212.00
2022-10-07T06:57:15.426Z,1448.00
2022-10-07T06:57:59.334Z,1516.00
2022-10-07T06:58:58.070Z,1368.00
2022-10-07T06:59:58.062Z,1132.00
2022-10-07T07:00:58.086Z,1152.00
2022-10-07T07:01:58.091Z,1120.00
2022-10-07T07:02:58.042Z,1192.00
2022-10-07T07:03:58.002Z,1216.00
2022-10-07T07:04:58.170Z,1092.00
2022-10-07T07:05:58.049Z,1056.00
2022-10-07T07:06:57.968Z,1164.00
2022-10-07T07:08:02.979Z,1228.00
2022-10-07T07:08:57.952Z,1336.00
2022-10-07T07:09:57.931Z,1264.00
2022-10-07T07:10:58.964Z,1016.00
2022-10-07T07:11:58.232Z,848.00
2022-10-07T07:12:57.977Z,872.00
2022-10-07T07:13:57.891Z,788.00
2022-10-07T07:14:57.881Z,772.00
2022-10-07T07:15:57.994Z,728.00
2022-10-07T07:16:57.914Z,712.00
2022-10-07T07:17:57.841Z,744.00
2022-10-07T07:19:02.854Z,800.00
2022-10-07T07:19:57.816Z,864.00
2022-10-07T07:20:57.828Z,936.00
2022-10-07T07:21:57.811Z,940.00
2022-10-07T07:22:57.783Z,980.00
2022-10-07T07:23:57.790Z,932.00
2022-10-07T07:24:57.763Z,988.00
2022-10-07T07:25:57.772Z,940.00
2022-10-07T07:26:57.738Z,916.00
2022-10-07T07:27:58.209Z,904.00
2022-10-07T07:28:57.717Z,932.00
2022-10-07T07:30:02.724Z,928.00
2022-10-07T07:30:57.737Z,920.00
2022-10-07T07:31:57.679Z,912.00
2022-10-07T07:32:57.683Z,908.00
2022-10-07T07:33:57.656Z,880.00
2022-10-07T07:34:57.648Z,952.00
2022-10-07T07:35:57.648Z,1004.00
2022-10-07T07:36:57.633Z,1048.00
2022-10-07T07:37:57.642Z,1080.00
2022-10-07T07:38:57.601Z,1136.00
2022-10-07T07:39:57.593Z,1144.00
2022-10-07T07:41:02.611Z,1168.00
2022-10-07T07:41:57.565Z,1260.00
2022-10-07T07:42:57.558Z,1284.00
2022-10-07T07:43:57.546Z,1408.00
2022-10-07T07:44:58.522Z,1496.00
2022-10-07T07:45:57.547Z,1512.00
2022-10-07T07:46:57.516Z,1616.00
2022-10-07T07:47:57.512Z,1748.00
2022-10-07T07:48:57.491Z,1912.00
2022-10-07T07:49:57.474Z,2020.00
2022-10-07T07:50:57.483Z,2180.00
2022-10-07T07:52:02.475Z,2500.00
2022-10-07T07:52:57.778Z,2804.00
2022-10-07T07:53:57.460Z,2756.00
2022-10-07T07:54:57.437Z,2432.00
2022-10-07T07:55:57.446Z,1820.00
2022-10-07T07:56:57.397Z,1532.00
2022-10-07T07:57:57.385Z,1396.00
2022-10-07T07:58:57.379Z,1368.00
2022-10-07T07:59:57.372Z,1428.00
2022-10-07T08:00:57.396Z,1484.00
2022-10-07T08:01:57.354Z,1820.00
2022-10-07T08:03:02.352Z,2064.00
2022-10-07T08:03:57.341Z,2672.00
2022-10-07T08:04:57.314Z,2372.00
2022-10-07T08:05:57.335Z,2480.00
2022-10-07T08:06:57.293Z,2564.00
2022-10-07T08:07:57.272Z,2496.00
2022-10-07T08:08:57.265Z,2080.00
2022-10-07T08:09:57.269Z,2032.00
2022-10-07T08:10:57.240Z,1912.00
2022-10-07T08:11:57.239Z,1892.00
2022-10-07T08:12:57.235Z,2192.00
2022-10-07T08:14:02.224Z,1864.00
2022-10-07T08:14:57.205Z,2532.00
2022-10-07T08:15:57.253Z,2932.00
2022-10-07T08:16:57.187Z,2956.00
2022-10-07T08:17:57.160Z,2984.00
2022-10-07T08:18:57.147Z,2472.00
2022-10-07T08:19:57.134Z,2540.00
2022-10-07T08:20:57.126Z,2428.00
2022-10-07T08:21:57.128Z,2556.00
2022-10-07T08:22:59.078Z,2748.00
2022-10-07T08:23:57.092Z,3248.00
2022-10-07T08:25:02.169Z,3440.00
2022-10-07T08:25:57.069Z,2940.00
2022-10-07T08:26:57.077Z,2584.00
2022-10-07T08:27:57.064Z,2972.00
2022-10-07T08:28:57.045Z,3752.00
2022-10-07T08:29:57.023Z,3680.00
2022-10-07T08:30:57.065Z,3528.00
2022-10-07T08:31:57.025Z,3104.00
2022-10-07T08:33:01.188Z,2928.00
2022-10-07T08:33:56.976Z,2680.00
2022-10-07T08:34:56.971Z,2280.00
2022-10-07T08:36:01.979Z,2204.00
2022-10-07T08:36:56.959Z,2184.00
2022-10-07T08:37:56.931Z,2228.00
2022-10-07T08:38:56.928Z,2360.00
2022-10-07T08:39:56.909Z,2228.00
2022-10-07T08:40:56.919Z,2120.00
2022-10-07T08:41:56.899Z,2136.00
2022-10-07T08:42:56.893Z,2240.00
2022-10-07T08:44:00.562Z,2328.00
2022-10-07T08:44:56.855Z,2396.00
2022-10-07T08:45:56.950Z,2520.00
2022-10-07T08:47:01.880Z,2536.00
2022-10-07T08:47:56.821Z,2520.00
2022-10-07T08:48:56.813Z,2588.00
2022-10-07T08:49:56.855Z,2520.00
2022-10-07T08:50:56.793Z,2360.00
2022-10-07T08:51:56.788Z,2172.00
2022-10-07T08:52:56.767Z,2008.00
2022-10-07T08:53:56.756Z,1924.00
2022-10-07T08:54:56.747Z,1876.00
2022-10-07T08:55:56.735Z,1812.00
2022-10-07T08:56:56.918Z,1888.00
2022-10-07T08:58:01.731Z,1972.00
2022-10-07T08:58:56.721Z,2076.00
2022-10-07T08:59:56.746Z,2080.00
2022-10-07T09:00:56.679Z,2284.00
2022-10-07T09:01:56.676Z,2260.00
2022-10-07T09:02:56.688Z,2160.00
2022-10-07T09:03:56.648Z,2048.00
2022-10-07T09:04:56.633Z,1944.00
2022-10-07T09:05:56.619Z,1912.00
2022-10-07T09:06:56.627Z,1992.00
2022-10-07T09:07:56.595Z,2020.00
2022-10-07T09:09:01.609Z,2000.00
2022-10-07T09:09:56.575Z,2064.00
2022-10-07T09:10:56.561Z,2236.00
2022-10-07T09:11:56.575Z,2480.00
2022-10-07T09:12:56.603Z,2492.00
2022-10-07T09:13:56.528Z,2352.00
2022-10-07T09:14:56.518Z,2288.00
2022-10-07T09:15:56.543Z,2512.00
2022-10-07T09:16:56.492Z,2492.00
2022-10-07T09:17:56.491Z,2568.00
2022-10-07T09:18:56.468Z,2580.00
2022-10-07T09:20:01.483Z,2592.00
2022-10-07T09:20:56.447Z,2612.00
2022-10-07T09:21:56.433Z,2644.00
2022-10-07T09:22:56.434Z,2684.00
2022-10-07T09:23:56.412Z,2668.00
2022-10-07T09:24:56.611Z,2728.00
2022-10-07T09:25:56.393Z,2924.00
2022-10-07T09:26:56.374Z,2904.00
2022-10-07T09:27:56.384Z,2704.00
2022-10-07T09:28:56.379Z,2636.00
2022-10-07T09:29:56.344Z,2584.00
2022-10-07T09:31:01.412Z,2612.00
2022-10-07T09:31:56.322Z,2676.00
2022-10-07T09:32:56.314Z,2724.00
2022-10-07T09:33:56.295Z,2736.00
2022-10-07T09:34:56.284Z,2712.00
2022-10-07T09:35:57.675Z,2692.00
2022-10-07T09:36:56.264Z,2736.00
2022-10-07T09:37:56.264Z,2788.00
2022-10-07T09:38:56.244Z,2836.00
2022-10-07T09:39:56.226Z,2832.00
2022-10-07T09:40:56.215Z,2828.00
2022-10-07T09:42:01.226Z,2820.00
2022-10-07T09:42:56.202Z,2880.00
2022-10-07T09:43:56.181Z,2988.00
2022-10-07T09:44:56.189Z,3184.00
2022-10-07T09:45:56.287Z,3216.00
2022-10-07T09:46:56.163Z,3224.00
2022-10-07T09:47:56.148Z,3180.00
2022-10-07T09:48:56.136Z,3152.00
2022-10-07T09:49:56.117Z,3092.00
2022-10-07T09:50:56.103Z,3104.00
2022-10-07T09:51:56.092Z,3092.00
2022-10-07T09:53:01.170Z,3080.00
2022-10-07T09:53:56.071Z,3084.00
2022-10-07T09:54:56.054Z,3092.00
2022-10-07T09:55:56.060Z,3108.00
2022-10-07T09:56:56.032Z,3168.00
2022-10-07T09:57:56.034Z,3236.00
2022-10-07T09:58:56.009Z,3288.00
2022-10-07T09:59:56.042Z,3320.00
2022-10-07T10:00:56.034Z,3304.00
2022-10-07T10:01:56.058Z,3268.00
2022-10-07T10:02:56.026Z,3360.00
2022-10-07T10:04:00.977Z,3404.00
2022-10-07T10:04:55.941Z,3476.00
2022-10-07T10:05:55.931Z,3600.00
2022-10-07T10:06:55.921Z,3588.00
2022-10-07T10:07:55.931Z,3592.00
2022-10-07T10:08:55.906Z,3716.00
2022-10-07T10:09:55.895Z,3992.00
2022-10-07T10:10:55.874Z,3860.00
2022-10-07T10:11:55.926Z,3692.00
2022-10-07T10:12:55.864Z,3596.00
2022-10-07T10:13:55.843Z,3668.00
2022-10-07T10:15:00.860Z,3712.00
2022-10-07T10:15:55.873Z,3792.00
2022-10-07T10:16:55.825Z,3860.00
2022-10-07T10:17:55.810Z,3868.00
2022-10-07T10:18:55.783Z,3844.00
2022-10-07T10:19:55.775Z,3812.00
2022-10-07T10:20:55.851Z,3836.00
2022-10-07T10:21:55.757Z,3852.00
2022-10-07T10:22:55.750Z,4048.00
2022-10-07T10:23:55.729Z,4096.00
2022-10-07T10:24:55.717Z,4392.00
2022-10-07T10:26:00.726Z,4412.00
2022-10-07T10:26:55.693Z,4144.00
2022-10-07T10:27:55.693Z,4244.00
2022-10-07T10:28:55.672Z,4468.00
2022-10-07T10:29:55.663Z,5392.00
2022-10-07T10:30:55.683Z,4696.00
2022-10-07T10:31:55.648Z,4272.00
2022-10-07T10:32:55.669Z,4172.00
2022-10-07T10:33:55.615Z,4096.00
2022-10-07T10:34:55.602Z,4048.00
2022-10-07T10:35:55.606Z,3996.00
2022-10-07T10:37:00.619Z,3904.00
2022-10-07T10:37:55.619Z,3828.00
2022-10-07T10:38:55.557Z,3888.00
2022-10-07T10:39:55.549Z,3892.00
2022-10-07T10:40:55.559Z,3956.00
2022-10-07T10:41:55.531Z,4612.00
2022-10-07T10:42:55.581Z,7336.00
2022-10-07T10:43:55.499Z,7032.00
2022-10-07T10:44:55.486Z,4544.00
2022-10-07T10:45:55.479Z,4196.00
2022-10-07T10:46:55.527Z,4144.00
2022-10-07T10:48:00.509Z,4564.00
2022-10-07T10:48:55.442Z,4228.00
2022-10-07T10:49:55.437Z,4116.00
2022-10-07T10:50:55.423Z,4136.00
2022-10-07T10:51:55.416Z,4316.00
2022-10-07T10:52:55.398Z,4372.00
2022-10-07T10:53:55.411Z,4604.00
2022-10-07T10:54:55.373Z,4744.00
2022-10-07T10:55:55.365Z,4812.00
2022-10-07T10:56:55.350Z,4984.00
2022-10-07T10:58:00.006Z,4948.00
2022-10-07T10:59:01.360Z,6224.00
2022-10-07T10:59:55.317Z,5328.00
2022-10-07T11:00:59.541Z,4764.00
2022-10-07T11:01:55.351Z,4924.00
2022-10-07T11:02:55.365Z,5596.00
2022-10-07T11:03:55.343Z,5772.00
2022-10-07T11:04:55.259Z,4756.00
2022-10-07T11:05:55.249Z,4352.00
2022-10-07T11:06:55.237Z,4120.00
2022-10-07T11:07:55.231Z,3940.00
2022-10-07T11:08:55.246Z,3916.00
2022-10-07T11:10:00.324Z,4000.00
2022-10-07T11:10:55.203Z,4152.00
2022-10-07T11:11:55.185Z,4228.00
2022-10-07T11:12:55.170Z,4460.00
2022-10-07T11:13:55.178Z,4804.00
2022-10-07T11:14:57.735Z,4936.00
2022-10-07T11:15:55.161Z,5032.00
2022-10-07T11:16:55.134Z,5220.00
2022-10-07T11:17:55.178Z,8172.00
2022-10-07T11:18:55.554Z,8796.00
2022-10-07T11:19:55.121Z,7860.00
2022-10-07T11:21:00.106Z,7900.00
2022-10-07T11:21:55.069Z,6636.00
2022-10-07T11:22:55.056Z,5840.00
2022-10-07T11:23:55.058Z,5392.00
2022-10-07T11:24:55.036Z,8880.00
2022-10-07T11:25:55.072Z,16224.00
2022-10-07T11:26:55.022Z,21376.00
2022-10-07T11:27:55.012Z,16320.00
2022-10-07T11:28:55.012Z,6908.00
2022-10-07T11:29:54.988Z,4264.00
2022-10-07T11:30:55.028Z,4100.00
2022-10-07T11:31:59.992Z,4132.00
2022-10-07T11:32:54.959Z,4064.00
2022-10-07T11:33:54.950Z,4104.00
2022-10-07T11:34:54.981Z,4184.00
2022-10-07T11:35:54.956Z,4260.00
2022-10-07T11:36:54.901Z,4284.00
2022-10-07T11:37:54.905Z,4428.00
2022-10-07T11:38:54.893Z,4920.00
2022-10-07T11:39:54.878Z,5124.00
2022-10-07T11:40:54.853Z,4920.00
2022-10-07T11:41:54.847Z,4636.00
2022-10-07T11:42:59.854Z,4420.00
2022-10-07T11:43:54.838Z,4208.00
2022-10-07T11:44:54.810Z,4068.00
2022-10-07T11:45:54.802Z,4104.00
2022-10-07T11:46:54.897Z,4172.00
2022-10-07T11:47:54.787Z,4256.00
2022-10-07T11:48:54.774Z,4244.00
2022-10-07T11:49:54.752Z,4288.00
2022-10-07T11:50:54.739Z,4316.00
2022-10-07T11:51:54.799Z,4316.00
2022-10-07T11:52:54.748Z,4308.00
2022-10-07T11:53:59.739Z,4276.00
2022-10-07T11:54:54.694Z,4228.00
2022-10-07T11:55:55.343Z,4240.00
2022-10-07T11:56:54.671Z,4372.00
2022-10-07T11:57:54.665Z,4528.00
2022-10-07T11:58:54.660Z,4776.00
2022-10-07T11:59:54.639Z,5144.00
2022-10-07T12:00:54.624Z,5980.00
2022-10-07T12:01:54.670Z,10788.00
2022-10-07T12:02:54.639Z,17152.00
2022-10-07T12:03:54.633Z,14600.00
2022-10-07T12:04:59.633Z,9012.00
2022-10-07T12:05:54.569Z,6096.00
2022-10-07T12:06:54.581Z,4828.00
2022-10-07T12:07:54.570Z,4196.00
2022-10-07T12:08:54.552Z,5008.00
2022-10-07T12:09:54.536Z,8212.00
2022-10-07T12:10:54.562Z,10880.00
2022-10-07T12:11:54.506Z,9748.00
2022-10-07T12:12:54.488Z,8384.00
2022-10-07T12:13:54.476Z,6916.00
2022-10-07T12:14:54.477Z,9500.00
2022-10-07T12:15:59.542Z,7264.00
2022-10-07T12:16:54.445Z,4028.00
2022-10-07T12:17:54.432Z,4628.00
2022-10-07T12:18:54.420Z,4432.00
2022-10-07T12:19:54.440Z,3764.00
2022-10-07T12:20:54.429Z,3772.00
2022-10-07T12:21:54.386Z,3980.00
2022-10-07T12:22:54.382Z,3508.00
2022-10-07T12:23:54.399Z,3272.00
2022-10-07T12:24:54.367Z,3264.00
2022-10-07T12:25:54.348Z,3236.00
2022-10-07T12:26:59.355Z,2964.00
2022-10-07T12:27:54.318Z,2916.00
2022-10-07T12:28:54.304Z,2912.00
2022-10-07T12:29:54.303Z,3224.00
2022-10-07T12:30:54.283Z,3756.00
2022-10-07T12:31:54.315Z,3900.00
2022-10-07T12:32:54.256Z,3184.00
2022-10-07T12:33:54.252Z,2900.00
2022-10-07T12:34:54.246Z,2748.00
2022-10-07T12:35:54.944Z,2640.00
2022-10-07T12:36:54.224Z,2764.00
2022-10-07T12:37:59.235Z,2704.00
2022-10-07T12:38:54.235Z,2596.00